Time;durP1;ratioP1;P1;durP2;ratioP2;P2;SDS_P1;SDS_P2;PMS_P1;PMS_P2;Temp;Humidity;BMP_temperature;BMP_pressure;BME280_temperature;BME280_humidity;BME280_pressure;Samples;Min_cycle;Max_cycle;Signal;HPM_P1;HPM_P2
2020/12/01 00:02:09;;;;;;;10.53;6.70;;;;;;;;;;5070428;28;20543;-56
2020/12/01 00:04:35;;;;;;;8.60;6.20;;;;;;;;;;5075457;28;20419;-56
2020/12/01 00:07:01;;;;;;;6.33;5.17;;;;;;;;;;5071804;28;20604;-55
2020/12/01 00:09:27;;;;;;;7.47;5.67;;;;;;;;;;5071698;28;20521;-56
2020/12/01 00:11:53;;;;;;;7.60;5.53;;;;;;;;;;5073356;28;20265;-58
2020/12/01 00:14:19;;;;;;;9.50;6.37;;;;;;;;;;5071608;28;20188;-55
2020/12/01 00:16:46;;;;;;;6.10;5.50;;;;;;;;;;5078302;28;20535;-56
2020/12/01 00:19:12;;;;;;;6.20;5.60;;;;;;;;;;5090701;28;20578;-56
2020/12/01 00:21:38;;;;;;;7.00;5.57;;;;;;;;;;5077055;28;20451;-56
2020/12/01 00:24:05;;;;;;;7.17;5.87;;;;;;;;;;5070077;28;20830;-56
2020/12/01 00:26:31;;;;;;;8.33;5.87;;;;;;;;;;5080349;28;20910;-55
2020/12/01 00:28:57;;;;;;;8.43;5.73;;;;;;;;;;5077348;28;20427;-56
2020/12/01 00:31:23;;;;;;;7.37;5.87;;;;;;;;;;5071458;28;20200;-56
2020/12/01 00:33:49;;;;;;;6.63;5.37;;;;;;;;;;5071422;28;20914;-55
2020/12/01 00:36:15;;;;;;;7.03;5.40;;;;;;;;;;5077582;28;20259;-56
2020/12/01 00:38:42;;;;;;;7.10;5.63;;;;;;;;;;5081370;28;20517;-56
2020/12/01 00:41:08;;;;;;;6.23;5.63;;;;;;;;;;5078111;28;20459;-56
2020/12/01 00:43:34;;;;;;;6.20;5.13;;;;;;;;;;5071323;28;20908;-56
2020/12/01 00:46:00;;;;;;;6.13;5.10;;;;;;;;;;5072133;28;20791;-56
2020/12/01 00:48:26;;;;;;;5.97;5.17;;;;;;;;;;5091372;28;20398;-55
2020/12/01 00:50:52;;;;;;;6.67;5.50;;;;;;;;;;5089338;28;20450;-55
2020/12/01 00:53:18;;;;;;;8.10;5.40;;;;;;;;;;5080679;28;20781;-55
2020/12/01 00:55:44;;;;;;;6.53;5.30;;;;;;;;;;5084143;28;20832;-55
2020/12/01 00:58:10;;;;;;;7.23;5.47;;;;;;;;;;5069439;28;20419;-55
2020/12/01 01:00:36;;;;;;;6.30;5.40;;;;;;;;;;5070713;28;20547;-55
2020/12/01 01:03:03;;;;;;;9.67;5.57;;;;;;;;;;5074201;28;20439;-55
2020/12/01 01:05:29;;;;;;;6.30;5.47;;;;;;;;;;5071018;28;20448;-56
2020/12/01 01:07:55;;;;;;;8.27;6.03;;;;;;;;;;5071858;28;20873;-56
2020/12/01 01:10:26;;;;;;;6.17;5.37;;;;;;;;;;5083829;28;20212;-56
2020/12/01 01:12:52;;;;;;;6.27;5.50;;;;;;;;;;5070814;28;20185;-55
2020/12/01 01:15:19;;;;;;;6.20;4.97;;;;;;;;;;5077098;28;20454;-56
2020/12/01 01:17:45;;;;;;;6.03;4.90;;;;;;;;;;5089587;28;20457;-56
2020/12/01 01:20:11;;;;;;;6.93;5.97;;;;;;;;;;5087609;28;20421;-56
2020/12/01 01:22:38;;;;;;;6.33;5.20;;;;;;;;;;5090979;28;20964;-56
2020/12/01 01:25:04;;;;;;;5.73;4.93;;;;;;;;;;5091008;28;20421;-55
2020/12/01 01:27:30;;;;;;;7.40;6.23;;;;;;;;;;5080579;28;21807;-56
2020/12/01 01:29:56;;;;;;;7.87;6.40;;;;;;;;;;5083978;28;20425;-55
2020/12/01 01:32:22;;;;;;;7.93;6.27;;;;;;;;;;5082881;28;20208;-56
2020/12/01 01:34:48;;;;;;;6.77;5.67;;;;;;;;;;5070562;28;20218;-55
2020/12/01 01:37:14;;;;;;;6.17;5.50;;;;;;;;;;5085661;28;20183;-58
2020/12/01 01:39:40;;;;;;;6.87;5.90;;;;;;;;;;5088958;28;21021;-56
2020/12/01 01:42:06;;;;;;;8.17;6.27;;;;;;;;;;5072623;28;20492;-56
2020/12/01 01:44:33;;;;;;;7.73;6.17;;;;;;;;;;5073347;28;20191;-56
2020/12/01 01:47:06;;;;;;;6.07;5.23;;;;;;;;;;5081633;28;20830;-55
2020/12/01 01:49:37;;;;;;;6.80;5.27;;;;;;;;;;5079582;28;20780;-56
2020/12/01 01:52:04;;;;;;;6.20;5.60;;;;;;;;;;5070721;28;20517;-55
2020/12/01 01:54:31;;;;;;;6.57;5.80;;;;;;;;;;5071519;28;20430;-56
2020/12/01 01:56:58;;;;;;;7.93;6.90;;;;;;;;;;5077674;28;20429;-56
2020/12/01 01:59:25;;;;;;;6.83;6.10;;;;;;;;;;5071521;28;20470;-56
2020/12/01 02:01:51;;;;;;;7.77;6.73;;;;;;;;;;5070470;28;20450;-56
2020/12/01 02:04:17;;;;;;;5.73;4.83;;;;;;;;;;5071288;28;20418;-55
2020/12/01 02:06:52;;;;;;;6.80;5.27;;;;;;;;;;5074819;28;20407;-55
2020/12/01 02:09:27;;;;;;;7.53;5.93;;;;;;;;;;5091111;28;20440;-55
2020/12/01 02:11:53;;;;;;;7.13;5.93;;;;;;;;;;5086140;28;20459;-55
2020/12/01 02:14:31;;;;;;;6.17;5.37;;;;;;;;;;5073775;28;20430;-55
2020/12/01 02:16:59;;;;;;;6.30;5.57;;;;;;;;;;5076194;28;20839;-56
2020/12/01 02:19:27;;;;;;;7.77;5.83;;;;;;;;;;5087934;28;20422;-56
2020/12/01 02:21:54;;;;;;;7.13;5.63;;;;;;;;;;5093870;28;20464;-56
2020/12/01 02:24:21;;;;;;;6.20;5.43;;;;;;;;;;5082784;28;20855;-58
2020/12/01 02:26:50;;;;;;;9.03;5.30;;;;;;;;;;5074080;28;21614;-56
2020/12/01 02:29:19;;;;;;;6.47;5.23;;;;;;;;;;5087222;28;20432;-56
2020/12/01 02:31:45;;;;;;;6.47;5.17;;;;;;;;;;5085441;28;20446;-56
2020/12/01 02:34:12;;;;;;;7.60;6.77;;;;;;;;;;5073874;28;20525;-56
2020/12/01 02:36:38;;;;;;;6.40;5.57;;;;;;;;;;5074732;28;20403;-56
2020/12/01 02:39:06;;;;;;;8.10;6.10;;;;;;;;;;5089819;28;20422;-57
2020/12/01 02:41:32;;;;;;;8.70;6.33;;;;;;;;;;5075226;28;20497;-56
2020/12/01 02:43:58;;;;;;;7.10;5.80;;;;;;;;;;5072637;28;20468;-56
2020/12/01 02:46:26;;;;;;;6.27;5.50;;;;;;;;;;5073334;28;20539;-57
2020/12/01 02:48:52;;;;;;;6.43;5.47;;;;;;;;;;5085554;28;20424;-56
2020/12/01 02:51:18;;;;;;;7.50;5.93;;;;;;;;;;5093371;28;20762;-56
2020/12/01 02:53:44;;;;;;;6.93;5.60;;;;;;;;;;5073342;28;20185;-56
2020/12/01 02:56:10;;;;;;;7.13;5.50;;;;;;;;;;5073612;28;20191;-56
2020/12/01 02:58:36;;;;;;;6.50;5.87;;;;;;;;;;5073016;28;20177;-58
2020/12/01 03:01:02;;;;;;;7.70;6.10;;;;;;;;;;5075002;28;20522;-57
2020/12/01 03:03:28;;;;;;;7.93;5.93;;;;;;;;;;5084288;28;20184;-56
2020/12/01 03:05:54;;;;;;;7.63;5.90;;;;;;;;;;5090098;28;20176;-56
2020/12/01 03:08:20;;;;;;;8.73;6.17;;;;;;;;;;5085796;28;20627;-56
2020/12/01 03:10:46;;;;;;;6.67;5.93;;;;;;;;;;5082886;28;20207;-57
2020/12/01 03:13:12;;;;;;;6.70;5.87;;;;;;;;;;5073378;28;20422;-57
2020/12/01 03:15:38;;;;;;;8.87;7.00;;;;;;;;;;5072373;28;20464;-56
2020/12/01 03:18:04;;;;;;;8.07;6.60;;;;;;;;;;5077072;28;20175;-57
2020/12/01 03:20:30;;;;;;;8.07;5.97;;;;;;;;;;5089408;28;20458;-57
2020/12/01 03:22:56;;;;;;;7.40;6.03;;;;;;;;;;5089912;28;20419;-59
2020/12/01 03:25:22;;;;;;;7.50;5.97;;;;;;;;;;5092955;28;20440;-56
2020/12/01 03:27:48;;;;;;;7.80;6.73;;;;;;;;;;5084105;28;20173;-56
2020/12/01 03:30:14;;;;;;;7.17;5.87;;;;;;;;;;5072355;28;20514;-57
2020/12/01 03:32:40;;;;;;;6.03;5.17;;;;;;;;;;5071040;28;20999;-56
2020/12/01 03:35:06;;;;;;;6.47;5.57;;;;;;;;;;5077233;28;20179;-59
2020/12/01 03:37:32;;;;;;;6.60;5.80;;;;;;;;;;5092150;28;20928;-56
2020/12/01 03:39:58;;;;;;;7.57;5.77;;;;;;;;;;5092742;28;20459;-57
2020/12/01 03:42:24;;;;;;;6.70;5.90;;;;;;;;;;5081047;28;20212;-56
2020/12/01 03:44:50;;;;;;;7.17;6.37;;;;;;;;;;5072292;28;20535;-56
2020/12/01 03:47:16;;;;;;;8.27;6.43;;;;;;;;;;5072302;28;20422;-56
2020/12/01 03:49:42;;;;;;;7.87;6.50;;;;;;;;;;5070890;28;20437;-56
2020/12/01 03:52:08;;;;;;;6.73;5.97;;;;;;;;;;5072972;28;21086;-56
2020/12/01 03:54:34;;;;;;;9.43;6.83;;;;;;;;;;5092535;28;20402;-56
2020/12/01 03:57:00;;;;;;;6.87;5.87;;;;;;;;;;5090541;28;20171;-56
2020/12/01 03:59:26;;;;;;;7.00;5.87;;;;;;;;;;5076077;28;20216;-59
2020/12/01 04:01:52;;;;;;;6.70;5.97;;;;;;;;;;5072350;28;20960;-57
2020/12/01 04:04:18;;;;;;;6.50;5.90;;;;;;;;;;5072076;28;20176;-56
2020/12/01 04:06:44;;;;;;;7.67;5.90;;;;;;;;;;5072077;28;20406;-56
2020/12/01 04:09:10;;;;;;;6.87;6.17;;;;;;;;;;5077374;28;20179;-56
2020/12/01 04:11:36;;;;;;;8.33;6.53;;;;;;;;;;5087424;28;20421;-57
2020/12/01 04:14:02;;;;;;;8.07;6.53;;;;;;;;;;5071620;28;20758;-57
2020/12/01 04:16:28;;;;;;;7.70;5.73;;;;;;;;;;5075058;28;20229;-56
2020/12/01 04:18:54;;;;;;;7.37;6.03;;;;;;;;;;5091631;28;20229;-58
2020/12/01 04:21:20;;;;;;;7.70;6.43;;;;;;;;;;5071988;28;20512;-56
2020/12/01 04:23:51;;;;;;;7.93;6.57;;;;;;;;;;5076613;28;20423;-57
2020/12/01 04:26:18;;;;;;;15.10;8.20;;;;;;;;;;5074462;28;20213;-56
2020/12/01 04:28:44;;;;;;;6.97;6.27;;;;;;;;;;5071113;28;20460;-56
2020/12/01 04:31:10;;;;;;;8.07;6.47;;;;;;;;;;5072935;28;20450;-56
2020/12/01 04:33:36;;;;;;;7.80;6.73;;;;;;;;;;5070200;28;20496;-56
2020/12/01 04:36:02;;;;;;;7.10;5.50;;;;;;;;;;5069812;28;20203;-58
2020/12/01 04:38:28;;;;;;;8.70;7.27;;;;;;;;;;5070970;28;20215;-57
2020/12/01 04:40:54;;;;;;;7.77;6.20;;;;;;;;;;5069658;28;20596;-56
2020/12/01 04:43:34;;;;;;;8.27;6.37;;;;;;;;;;5071710;28;20208;-56
2020/12/01 04:46:01;;;;;;;7.90;6.90;;;;;;;;;;5070845;28;20472;-57
2020/12/01 04:48:30;;;;;;;7.97;6.47;;;;;;;;;;5072337;28;21159;-56
2020/12/01 04:51:01;;;;;;;9.17;6.00;;;;;;;;;;5089875;28;20426;-56
2020/12/01 04:53:45;;;;;;;8.17;6.17;;;;;;;;;;5070084;28;21023;-57
2020/12/01 04:56:29;;;;;;;7.43;5.77;;;;;;;;;;5071942;28;20907;-57
2020/12/01 04:59:13;;;;;;;9.00;6.53;;;;;;;;;;5077885;28;20924;-56
2020/12/01 05:01:57;;;;;;;7.33;6.37;;;;;;;;;;5087872;28;20490;-56
2020/12/01 05:04:30;;;;;;;8.50;6.67;;;;;;;;;;5089615;28;20759;-56
2020/12/01 05:07:15;;;;;;;8.60;7.07;;;;;;;;;;5081864;28;20463;-57
2020/12/01 05:09:42;;;;;;;7.00;6.30;;;;;;;;;;5076201;28;20410;-56
2020/12/01 05:12:15;;;;;;;8.80;6.50;;;;;;;;;;5070672;28;20409;-56
2020/12/01 05:14:53;;;;;;;7.23;6.53;;;;;;;;;;5073889;28;20406;-56
2020/12/01 05:17:45;;;;;;;7.93;6.37;;;;;;;;;;5082771;28;20445;-56
2020/12/01 05:20:12;;;;;;;6.37;5.67;;;;;;;;;;5070586;28;20391;-56
2020/12/01 05:22:38;;;;;;;6.77;5.67;;;;;;;;;;5070930;28;20411;-57
2020/12/01 05:25:05;;;;;;;7.23;5.83;;;;;;;;;;5070598;28;20414;-56
2020/12/01 05:27:34;;;;;;;7.87;6.00;;;;;;;;;;5072094;28;20418;-56
2020/12/01 05:30:00;;;;;;;6.80;6.03;;;;;;;;;;5078096;28;20504;-56
2020/12/01 05:32:28;;;;;;;9.13;6.70;;;;;;;;;;5076814;28;20495;-56
2020/12/01 05:34:54;;;;;;;7.07;5.50;;;;;;;;;;5073964;28;20430;-56
2020/12/01 05:37:20;;;;;;;5.70;5.10;;;;;;;;;;5070560;28;20917;-56
2020/12/01 05:39:46;;;;;;;6.77;6.07;;;;;;;;;;5075674;28;20464;-57
2020/12/01 05:42:20;;;;;;;8.83;5.93;;;;;;;;;;5073662;28;20200;-57
2020/12/01 05:44:56;;;;;;;6.90;5.93;;;;;;;;;;5086617;28;20888;-57
2020/12/01 05:47:27;;;;;;;6.50;5.80;;;;;;;;;;5082904;28;20426;-56
2020/12/01 05:50:13;;;;;;;6.83;5.70;;;;;;;;;;5077673;28;20537;-57
2020/12/01 05:52:46;;;;;;;7.67;6.07;;;;;;;;;;5073803;28;20433;-57
2020/12/01 05:55:18;;;;;;;6.73;5.73;;;;;;;;;;5071763;28;20505;-56
2020/12/01 05:57:56;;;;;;;9.37;6.20;;;;;;;;;;5087313;28;20418;-56
2020/12/01 06:00:24;;;;;;;7.23;5.90;;;;;;;;;;5086742;28;20502;-57
2020/12/01 06:02:59;;;;;;;9.37;5.73;;;;;;;;;;5080393;28;20888;-56
2020/12/01 06:05:26;;;;;;;9.37;5.97;;;;;;;;;;5078421;28;20500;-56
2020/12/01 06:07:55;;;;;;;9.00;6.43;;;;;;;;;;5092509;28;20425;-56
2020/12/01 06:10:28;;;;;;;6.67;6.03;;;;;;;;;;5094234;28;20880;-56
2020/12/01 06:13:05;;;;;;;7.37;6.00;;;;;;;;;;5074140;28;20752;-56
2020/12/01 06:15:32;;;;;;;6.27;5.67;;;;;;;;;;5077606;28;20544;-56
2020/12/01 06:18:02;;;;;;;7.00;5.23;;;;;;;;;;5088950;28;20428;-57
2020/12/01 06:20:39;;;;;;;6.97;5.67;;;;;;;;;;5093790;28;20418;-58
2020/12/01 06:23:23;;;;;;;6.70;5.37;;;;;;;;;;5073971;28;20410;-56
2020/12/01 06:25:52;;;;;;;6.33;5.17;;;;;;;;;;5073707;28;20543;-56
2020/12/01 06:28:37;;;;;;;5.97;5.37;;;;;;;;;;5074262;28;20422;-58
2020/12/01 06:31:07;;;;;;;6.23;5.63;;;;;;;;;;5085296;28;20442;-59
2020/12/01 06:33:49;;;;;;;7.40;6.23;;;;;;;;;;5078096;28;20844;-56
2020/12/01 06:36:34;;;;;;;6.40;5.67;;;;;;;;;;5078395;28;20407;-56
2020/12/01 06:39:19;;;;;;;6.63;5.43;;;;;;;;;;5083281;28;20422;-56
2020/12/01 06:41:47;;;;;;;6.67;5.30;;;;;;;;;;5075971;28;20446;-57
2020/12/01 06:44:15;;;;;;;6.83;5.87;;;;;;;;;;5079482;28;20422;-56
2020/12/01 06:46:46;;;;;;;6.40;5.80;;;;;;;;;;5077186;28;20411;-56
2020/12/01 06:49:15;;;;;;;7.07;5.97;;;;;;;;;;5091935;28;20970;-56
2020/12/01 06:51:41;;;;;;;7.73;6.33;;;;;;;;;;5092500;28;20427;-56
2020/12/01 06:54:11;;;;;;;7.00;5.67;;;;;;;;;;5093564;28;20771;-56
2020/12/01 06:56:38;;;;;;;8.13;6.03;;;;;;;;;;5093201;28;20466;-56
2020/12/01 06:59:09;;;;;;;6.10;5.33;;;;;;;;;;5091456;28;20428;-56
2020/12/01 07:01:36;;;;;;;7.67;5.87;;;;;;;;;;5088038;28;20449;-56
2020/12/01 07:04:04;;;;;;;6.67;5.03;;;;;;;;;;5093398;28;20484;-56
2020/12/01 07:06:30;;;;;;;6.13;5.47;;;;;;;;;;5092716;28;20426;-57
2020/12/01 07:09:06;;;;;;;6.47;5.53;;;;;;;;;;5073986;28;20411;-56
2020/12/01 07:11:33;;;;;;;6.00;5.17;;;;;;;;;;5073139;28;20187;-56
2020/12/01 07:14:02;;;;;;;6.27;5.17;;;;;;;;;;5084414;28;20464;-57
2020/12/01 07:16:30;;;;;;;6.80;5.30;;;;;;;;;;5078620;28;20427;-57
2020/12/01 07:18:58;;;;;;;5.97;5.30;;;;;;;;;;5073823;28;20422;-56
2020/12/01 07:21:26;;;;;;;7.47;5.20;;;;;;;;;;5084423;28;20549;-58
2020/12/01 07:23:59;;;;;;;5.83;4.90;;;;;;;;;;5090102;28;20426;-56
2020/12/01 07:26:34;;;;;;;6.00;5.03;;;;;;;;;;5092896;28;20414;-56
2020/12/01 07:29:20;;;;;;;5.87;4.83;;;;;;;;;;5084266;28;20419;-56
2020/12/01 07:31:46;;;;;;;7.00;4.80;;;;;;;;;;5088369;28;20777;-56
2020/12/01 07:34:25;;;;;;;7.47;5.70;;;;;;;;;;5080395;28;20435;-56
2020/12/01 07:36:56;;;;;;;6.43;5.03;;;;;;;;;;5073183;28;20870;-56
2020/12/01 07:39:24;;;;;;;6.50;4.97;;;;;;;;;;5070824;28;20851;-56
2020/12/01 07:42:01;;;;;;;6.70;5.50;;;;;;;;;;5083191;28;20461;-56
2020/12/01 07:44:38;;;;;;;7.90;5.03;;;;;;;;;;5071889;28;20475;-57
2020/12/01 07:47:12;;;;;;;7.00;4.73;;;;;;;;;;5071281;28;20427;-58
2020/12/01 07:49:38;;;;;;;6.80;4.37;;;;;;;;;;5072438;28;20749;-56
2020/12/01 07:52:23;;;;;;;8.80;4.70;;;;;;;;;;5072313;28;20963;-57
2020/12/01 07:54:50;;;;;;;6.80;4.33;;;;;;;;;;5089840;28;20422;-59
2020/12/01 07:57:17;;;;;;;7.00;4.30;;;;;;;;;;5082335;28;20440;-56
2020/12/01 07:59:44;;;;;;;6.63;4.13;;;;;;;;;;5075830;28;20530;-56
2020/12/01 08:02:10;;;;;;;8.17;3.67;;;;;;;;;;5091294;28;20449;-56
2020/12/01 08:04:36;;;;;;;7.70;4.20;;;;;;;;;;5076810;28;20972;-56
2020/12/01 08:07:02;;;;;;;8.37;4.37;;;;;;;;;;5071849;28;21159;-56
2020/12/01 08:09:29;;;;;;;6.57;3.80;;;;;;;;;;5087657;28;20428;-56
2020/12/01 08:11:56;;;;;;;5.50;3.90;;;;;;;;;;5091894;28;20412;-56
2020/12/01 08:14:22;;;;;;;8.07;4.17;;;;;;;;;;5092132;28;20824;-56
2020/12/01 08:17:02;;;;;;;6.57;4.30;;;;;;;;;;5085017;28;20913;-56
2020/12/01 08:19:29;;;;;;;8.30;3.60;;;;;;;;;;5086342;28;20418;-56
2020/12/01 08:21:56;;;;;;;6.77;3.77;;;;;;;;;;5091532;28;20457;-56
2020/12/01 08:24:24;;;;;;;7.53;3.43;;;;;;;;;;5089180;28;20500;-56
2020/12/01 08:26:59;;;;;;;8.60;3.93;;;;;;;;;;5089181;28;20429;-56
2020/12/01 08:29:30;;;;;;;9.70;3.90;;;;;;;;;;5071531;28;20897;-56
2020/12/01 08:32:05;;;;;;;6.67;4.10;;;;;;;;;;5071658;28;20774;-56
2020/12/01 08:34:36;;;;;;;8.60;4.40;;;;;;;;;;5071256;28;20418;-56
2020/12/01 08:37:02;;;;;;;7.13;3.83;;;;;;;;;;5072466;28;20776;-56
2020/12/01 08:39:55;;;;;;;7.63;3.93;;;;;;;;;;5072353;28;20437;-57
2020/12/01 08:42:24;;;;;;;8.17;3.23;;;;;;;;;;5068680;28;20228;-56
2020/12/01 08:45:11;;;;;;;8.00;4.27;;;;;;;;;;5072344;28;20172;-56
2020/12/01 08:47:37;;;;;;;6.57;4.47;;;;;;;;;;5072498;28;20954;-56
2020/12/01 08:50:12;;;;;;;6.30;3.80;;;;;;;;;;5082912;28;20905;-56
2020/12/01 08:52:41;;;;;;;4.47;2.93;;;;;;;;;;5071678;28;20419;-56
2020/12/01 08:55:20;;;;;;;9.97;3.90;;;;;;;;;;5079308;28;20414;-56
2020/12/01 08:57:48;;;;;;;5.07;3.43;;;;;;;;;;5074483;28;20795;-56
2020/12/01 09:00:15;;;;;;;5.83;3.77;;;;;;;;;;5071241;28;21095;-57
2020/12/01 09:02:46;;;;;;;7.07;3.27;;;;;;;;;;5078983;28;20489;-56
2020/12/01 09:05:23;;;;;;;5.13;2.57;;;;;;;;;;5073637;28;20974;-56
2020/12/01 09:07:57;;;;;;;10.20;3.80;;;;;;;;;;5072948;28;20179;-57
2020/12/01 09:10:29;;;;;;;7.60;3.10;;;;;;;;;;5073316;28;20402;-56
2020/12/01 09:13:05;;;;;;;10.73;3.40;;;;;;;;;;5075772;28;20403;-56
2020/12/01 09:23:36;;;;;;;4.70;3.03;;;;;;;;;;5068543;28;20192;-56
2020/12/01 09:26:03;;;;;;;9.77;4.13;;;;;;;;;;5082610;28;20465;-57
2020/12/01 09:28:31;;;;;;;13.67;5.70;;;;;;;;;;5090391;28;20398;-57
2020/12/01 09:31:05;;;;;;;17.07;7.10;;;;;;;;;;5082569;28;20301;-58
2020/12/01 09:33:31;;;;;;;13.83;8.23;;;;;;;;;;5069514;28;20576;-57
2020/12/01 09:35:57;;;;;;;15.20;8.60;;;;;;;;;;5069383;28;20763;-57
2020/12/01 09:38:23;;;;;;;18.87;8.43;;;;;;;;;;5069192;28;20414;-57
2020/12/01 09:40:52;;;;;;;17.07;8.27;;;;;;;;;;5072079;28;20238;-57
2020/12/01 09:43:26;;;;;;;12.77;8.93;;;;;;;;;;5080439;28;20208;-58
2020/12/01 09:45:54;;;;;;;15.07;9.87;;;;;;;;;;5069681;28;20517;-57
2020/12/01 09:48:31;;;;;;;21.93;9.80;;;;;;;;;;5071171;28;20623;-57
2020/12/01 09:50:57;;;;;;;16.90;9.37;;;;;;;;;;5077634;28;20257;-57
2020/12/01 09:59:04;;;;;;;13.17;8.60;;;;;;;;;;5081568;28;20524;-57
2020/12/01 10:07:51;;;;;;;12.90;8.10;;;;;;;;;;5042578;28;20188;-58
2020/12/01 10:12:33;;;;;;;13.53;8.27;;;;;;;;;;5086085;28;20190;-58
2020/12/01 10:31:37;;;;;;;12.60;9.83;;;;;;;;;;5077202;28;20195;-58
2020/12/01 10:35:48;;;;;;;12.93;9.53;;;;;;;;;;5084478;28;20692;-61
2020/12/01 10:38:14;;;;;;;11.60;9.17;;;;;;;;;;5080985;28;20179;-58
2020/12/01 10:40:41;;;;;;;12.53;9.10;;;;;;;;;;5092935;28;20253;-58
2020/12/01 10:43:07;;;;;;;14.90;10.33;;;;;;;;;;5083737;28;20181;-58
2020/12/01 10:45:33;;;;;;;14.03;10.63;;;;;;;;;;5072581;28;20216;-58
2020/12/01 10:47:59;;;;;;;12.97;9.77;;;;;;;;;;5072558;28;20181;-58
2020/12/01 10:50:26;;;;;;;15.43;10.73;;;;;;;;;;5072382;28;20682;-58
2020/12/01 10:52:53;;;;;;;11.97;9.27;;;;;;;;;;5084524;28;20184;-58
2020/12/01 10:55:22;;;;;;;15.63;9.60;;;;;;;;;;5089565;28;20677;-58
2020/12/01 10:57:51;;;;;;;12.53;10.33;;;;;;;;;;5092917;28;20677;-58
2020/12/01 11:00:18;;;;;;;16.97;10.30;;;;;;;;;;5092004;28;20219;-58
2020/12/01 11:02:43;;;;;;;15.03;11.63;;;;;;;;;;5089938;28;20291;-58
2020/12/01 11:05:11;;;;;;;12.93;10.17;;;;;;;;;;5091538;28;20290;-58
2020/12/01 11:07:38;;;;;;;15.33;11.03;;;;;;;;;;5092241;28;20501;-58
2020/12/01 11:10:05;;;;;;;16.43;10.47;;;;;;;;;;5091762;28;20176;-58
2020/12/01 11:12:31;;;;;;;17.50;11.40;;;;;;;;;;5088697;28;20211;-58
2020/12/01 11:14:57;;;;;;;16.67;11.83;;;;;;;;;;5074985;28;20226;-58
2020/12/01 11:17:23;;;;;;;16.67;11.93;;;;;;;;;;5072272;28;20227;-58
2020/12/01 11:19:49;;;;;;;18.53;12.37;;;;;;;;;;5069998;28;20227;-60
2020/12/01 11:22:15;;;;;;;19.53;12.63;;;;;;;;;;5079927;28;20227;-58
2020/12/01 11:24:42;;;;;;;19.00;12.73;;;;;;;;;;5079058;28;20249;-59
2020/12/01 11:27:08;;;;;;;21.93;13.37;;;;;;;;;;5071679;28;20259;-58
2020/12/01 11:29:34;;;;;;;23.20;14.20;;;;;;;;;;5071315;28;20192;-58
2020/12/01 11:32:00;;;;;;;19.97;13.37;;;;;;;;;;5088964;28;20278;-58
2020/12/01 11:34:26;;;;;;;21.73;15.00;;;;;;;;;;5091479;28;20259;-60
2020/12/01 11:36:54;;;;;;;20.00;13.97;;;;;;;;;;5091258;28;20163;-58
2020/12/01 11:39:20;;;;;;;21.43;13.57;;;;;;;;;;5090005;28;20646;-59
2020/12/01 11:41:46;;;;;;;25.30;14.23;;;;;;;;;;5075946;28;20223;-58
2020/12/01 11:44:13;;;;;;;21.57;13.87;;;;;;;;;;5084971;28;20183;-58
2020/12/01 11:46:39;;;;;;;19.97;14.47;;;;;;;;;;5089336;28;20269;-58
2020/12/01 11:49:06;;;;;;;20.33;14.57;;;;;;;;;;5090020;28;20215;-58
2020/12/01 11:51:32;;;;;;;21.77;13.03;;;;;;;;;;5088841;28;20312;-59
2020/12/01 11:53:59;;;;;;;21.83;13.07;;;;;;;;;;5091268;28;20176;-58
2020/12/01 11:56:25;;;;;;;20.30;13.83;;;;;;;;;;5074878;28;20185;-58
2020/12/01 11:58:51;;;;;;;26.70;13.43;;;;;;;;;;5084952;28;20176;-58
2020/12/01 12:01:17;;;;;;;21.13;13.53;;;;;;;;;;5087523;28;20620;-58
2020/12/01 12:03:43;;;;;;;23.23;13.43;;;;;;;;;;5076645;28;20528;-58
2020/12/01 12:06:10;;;;;;;21.40;12.90;;;;;;;;;;5082707;28;20176;-58
2020/12/01 12:08:36;;;;;;;23.07;13.13;;;;;;;;;;5070692;28;20244;-57
2020/12/01 12:11:02;;;;;;;23.50;12.60;;;;;;;;;;5074190;28;20183;-59
2020/12/01 12:13:28;;;;;;;23.40;13.10;;;;;;;;;;5081811;28;20184;-57
2020/12/01 12:15:54;;;;;;;20.43;10.27;;;;;;;;;;5070554;28;20215;-57
2020/12/01 12:18:20;;;;;;;19.50;10.70;;;;;;;;;;5070640;28;20235;-59
2020/12/01 12:20:46;;;;;;;17.00;9.90;;;;;;;;;;5078725;28;20207;-57
2020/12/01 12:23:13;;;;;;;15.60;8.03;;;;;;;;;;5088227;28;20184;-57
2020/12/01 12:25:39;;;;;;;15.93;8.47;;;;;;;;;;5090625;28;20194;-57
2020/12/01 12:28:05;;;;;;;21.10;8.53;;;;;;;;;;5088064;28;20510;-57
2020/12/01 12:30:31;;;;;;;21.37;9.03;;;;;;;;;;5077695;28;20304;-58
2020/12/01 12:32:57;;;;;;;20.83;7.73;;;;;;;;;;5083812;28;20167;-57
2020/12/01 12:35:23;;;;;;;20.27;8.47;;;;;;;;;;5083812;28;20215;-57
2020/12/01 12:37:49;;;;;;;14.73;8.13;;;;;;;;;;5083287;28;20233;-57
2020/12/01 12:40:16;;;;;;;18.03;9.77;;;;;;;;;;5088771;28;20642;-57
2020/12/01 12:42:42;;;;;;;22.20;9.67;;;;;;;;;;5078488;28;20192;-57
2020/12/01 12:45:08;;;;;;;18.60;9.53;;;;;;;;;;5068872;28;20666;-57
2020/12/01 12:47:34;;;;;;;21.47;10.50;;;;;;;;;;5080544;28;20691;-57
2020/12/01 12:50:00;;;;;;;20.43;9.67;;;;;;;;;;5079595;28;20268;-58
2020/12/01 12:52:26;;;;;;;18.00;9.93;;;;;;;;;;5072971;28;20600;-58
2020/12/01 12:54:52;;;;;;;13.83;9.20;;;;;;;;;;5084176;28;20662;-59
2020/12/01 12:57:18;;;;;;;16.87;9.00;;;;;;;;;;5090275;28;20183;-58
2020/12/01 12:59:44;;;;;;;19.57;9.10;;;;;;;;;;5090139;28;20219;-57
2020/12/01 13:02:10;;;;;;;12.80;8.93;;;;;;;;;;5088060;28;20203;-57
2020/12/01 13:04:37;;;;;;;17.90;9.57;;;;;;;;;;5077299;28;20176;-58
2020/12/01 13:07:03;;;;;;;19.87;9.23;;;;;;;;;;5070986;28;20169;-59
2020/12/01 13:09:29;;;;;;;15.70;8.47;;;;;;;;;;5068446;28;20813;-57
2020/12/01 13:11:54;;;;;;;19.63;9.37;;;;;;;;;;5069896;28;20176;-57
2020/12/01 13:14:24;;;;;;;18.30;9.33;;;;;;;;;;5085956;28;20215;-58
2020/12/01 13:16:50;;;;;;;15.77;9.77;;;;;;;;;;5088321;28;20172;-57
2020/12/01 13:19:16;;;;;;;17.97;10.87;;;;;;;;;;5088536;28;20547;-57
2020/12/01 13:21:42;;;;;;;20.23;9.20;;;;;;;;;;5072912;28;20239;-57
2020/12/01 13:24:09;;;;;;;17.03;8.70;;;;;;;;;;5072198;28;20187;-58
2020/12/01 13:26:35;;;;;;;16.57;7.93;;;;;;;;;;5086361;28;20183;-58
2020/12/01 13:29:01;;;;;;;14.80;6.83;;;;;;;;;;5069668;28;20171;-58
2020/12/01 13:31:27;;;;;;;12.40;6.13;;;;;;;;;;5070466;28;20216;-57
2020/12/01 13:33:53;;;;;;;10.90;5.23;;;;;;;;;;5079689;28;20175;-58
2020/12/01 13:36:23;;;;;;;12.47;5.23;;;;;;;;;;5088872;28;20176;-57
2020/12/01 13:38:49;;;;;;;12.23;5.43;;;;;;;;;;5089396;28;20168;-58
2020/12/01 13:41:16;;;;;;;8.53;5.10;;;;;;;;;;5088363;28;20217;-57
2020/12/01 13:43:42;;;;;;;7.20;4.57;;;;;;;;;;5086601;28;20187;-57
2020/12/01 13:46:08;;;;;;;10.00;4.50;;;;;;;;;;5086517;28;20648;-59
2020/12/01 13:48:34;;;;;;;9.53;4.47;;;;;;;;;;5089341;28;20179;-58
2020/12/01 13:51:00;;;;;;;11.80;5.37;;;;;;;;;;5087883;28;20294;-58
2020/12/01 13:53:26;;;;;;;11.93;5.57;;;;;;;;;;5087360;28;20263;-58
2020/12/01 13:55:52;;;;;;;16.33;6.63;;;;;;;;;;5088772;28;20186;-57
2020/12/01 13:58:18;;;;;;;9.60;5.80;;;;;;;;;;5079600;28;20184;-59
2020/12/01 14:00:45;;;;;;;14.77;6.27;;;;;;;;;;5070967;28;20220;-58
2020/12/01 14:03:11;;;;;;;13.90;6.17;;;;;;;;;;5075720;28;20228;-57
2020/12/01 14:05:38;;;;;;;11.53;5.37;;;;;;;;;;5083599;28;20532;-57
2020/12/01 14:08:04;;;;;;;16.93;9.33;;;;;;;;;;5076562;28;20172;-57
2020/12/01 14:10:31;;;;;;;20.60;8.20;;;;;;;;;;5076834;28;20179;-58
2020/12/01 14:12:57;;;;;;;16.93;8.80;;;;;;;;;;5079987;28;20580;-57
2020/12/01 14:15:23;;;;;;;16.57;8.67;;;;;;;;;;5080763;28;20179;-57
2020/12/01 14:17:49;;;;;;;18.80;8.33;;;;;;;;;;5074645;28;20579;-57
2020/12/01 14:20:18;;;;;;;10.97;6.10;;;;;;;;;;5073722;28;20230;-58
2020/12/01 14:22:44;;;;;;;11.90;6.50;;;;;;;;;;5071931;28;20200;-58
2020/12/01 14:25:11;;;;;;;16.40;6.00;;;;;;;;;;5074933;28;20181;-57
2020/12/01 14:27:37;;;;;;;10.60;5.40;;;;;;;;;;5077775;28;20190;-57
2020/12/01 14:30:12;;;;;;;10.60;5.37;;;;;;;;;;5073580;28;20553;-58
2020/12/01 14:32:38;;;;;;;10.13;5.17;;;;;;;;;;5085167;28;20240;-57
2020/12/01 14:35:04;;;;;;;10.73;5.90;;;;;;;;;;5090127;28;20515;-59
2020/12/01 14:37:30;;;;;;;10.53;4.43;;;;;;;;;;5076980;28;20242;-57
2020/12/01 14:39:56;;;;;;;10.97;5.07;;;;;;;;;;5072248;28;20173;-57
2020/12/01 14:42:24;;;;;;;9.27;4.07;;;;;;;;;;5072305;28;20239;-57
2020/12/01 14:44:50;;;;;;;9.80;4.73;;;;;;;;;;5074953;28;20177;-57
2020/12/01 14:47:22;;;;;;;10.73;4.00;;;;;;;;;;5080669;28;20179;-57
2020/12/01 14:50:07;;;;;;;11.37;3.93;;;;;;;;;;5085581;28;20607;-57
2020/12/01 14:52:48;;;;;;;9.33;3.77;;;;;;;;;;5087681;28;20184;-57
2020/12/01 14:55:18;;;;;;;8.43;4.37;;;;;;;;;;5081523;28;20619;-57
2020/12/01 14:57:44;;;;;;;8.20;4.50;;;;;;;;;;5085448;28;20229;-57
2020/12/01 15:00:10;;;;;;;10.27;5.23;;;;;;;;;;5076346;28;20219;-57
2020/12/01 15:02:46;;;;;;;11.77;5.23;;;;;;;;;;5086427;28;20693;-57
2020/12/01 15:05:18;;;;;;;9.47;4.57;;;;;;;;;;5088897;28;20174;-57
2020/12/01 15:07:53;;;;;;;8.33;4.20;;;;;;;;;;5081524;28;20570;-57
2020/12/01 15:10:40;;;;;;;7.20;4.10;;;;;;;;;;5082350;28;20178;-57
2020/12/01 15:13:06;;;;;;;13.07;4.23;;;;;;;;;;5071910;28;20192;-57
2020/12/01 15:15:43;;;;;;;12.47;4.77;;;;;;;;;;5086031;28;20192;-57
2020/12/01 15:18:10;;;;;;;11.67;4.90;;;;;;;;;;5083913;28;20226;-57
2020/12/01 15:20:37;;;;;;;9.20;4.27;;;;;;;;;;5093596;28;20224;-56
2020/12/01 15:23:23;;;;;;;8.60;4.30;;;;;;;;;;5086309;28;20214;-58
2020/12/01 15:25:50;;;;;;;7.47;3.83;;;;;;;;;;5082256;28;20172;-56
2020/12/01 15:28:31;;;;;;;10.93;3.93;;;;;;;;;;5081125;28;20242;-55